Time;durP1;ratioP1;P1;durP2;ratioP2;P2;SDS_P1;SDS_P2;PMS_P1;PMS_P2;Temp;Humidity;BMP_temperature;BMP_pressure;BME280_temperature;BME280_humidity;BME280_pressure;Samples;Min_cycle;Max_cycle;Signal;HPM_P1;HPM_P2
2022/03/21 00:01:32;;;;;;;22.17;16.70;;;7.00;97.40;;;;;;5179218;27;21069;-51
2022/03/21 00:04:00;;;;;;;22.60;16.47;;;7.00;97.60;;;;;;5177451;27;20206;-50
2022/03/21 00:06:28;;;;;;;21.30;16.47;;;7.00;97.80;;;;;;5178567;27;20304;-49
2022/03/21 00:08:56;;;;;;;21.03;16.43;;;6.90;97.80;;;;;;5178978;27;20201;-51
2022/03/21 00:11:24;;;;;;;22.97;16.47;;;6.80;98.00;;;;;;5178041;27;20673;-51
2022/03/21 00:13:54;;;;;;;23.83;16.47;;;6.80;98.10;;;;;;5178142;27;20202;-51
2022/03/21 00:16:23;;;;;;;21.00;16.37;;;6.70;98.30;;;;;;5178737;27;20224;-51
2022/03/21 00:18:53;;;;;;;23.17;16.80;;;6.60;98.50;;;;;;5178862;27;20208;-51
2022/03/21 00:21:21;;;;;;;23.27;16.93;;;6.50;98.60;;;;;;5179368;27;20200;-51
2022/03/21 00:23:49;;;;;;;24.70;16.93;;;6.50;98.60;;;;;;5177867;27;20200;-51
2022/03/21 00:26:18;;;;;;;19.73;15.60;;;6.50;98.80;;;;;;5178031;27;20229;-49
2022/03/21 00:28:46;;;;;;;22.27;16.97;;;6.50;98.50;;;;;;5176892;27;20257;-51
2022/03/21 00:31:14;;;;;;;23.93;17.40;;;6.40;98.90;;;;;;5176358;27;20926;-51
2022/03/21 00:33:42;;;;;;;22.77;17.87;;;6.30;98.70;;;;;;5176217;27;20205;-50
2022/03/21 00:36:12;;;;;;;23.73;16.93;;;6.30;99.00;;;;;;5176791;27;20197;-51
2022/03/21 00:39:00;;;;;;;22.90;15.90;;;6.30;99.10;;;;;;5177144;27;20295;-51
2022/03/21 00:41:31;;;;;;;22.40;16.80;;;6.20;99.30;;;;;;5176559;27;20766;-50
2022/03/21 00:43:59;;;;;;;20.10;15.77;;;6.20;99.60;;;;;;5176390;27;20618;-50
2022/03/21 00:46:28;;;;;;;22.43;15.90;;;6.10;99.40;;;;;;5176149;27;20221;-50
2022/03/21 00:48:56;;;;;;;21.73;16.23;;;6.10;99.50;;;;;;5176604;27;20241;-50
2022/03/21 00:51:25;;;;;;;23.43;17.33;;;6.00;99.30;;;;;;5176528;27;20624;-49
2022/03/21 00:53:53;;;;;;;23.10;16.53;;;6.00;99.30;;;;;;5176535;27;20209;-50
2022/03/21 00:56:21;;;;;;;22.80;15.90;;;6.00;99.50;;;;;;5176995;27;20223;-50
2022/03/21 00:58:50;;;;;;;20.87;17.17;;;6.00;99.30;;;;;;5176265;27;20685;-50
2022/03/21 01:01:18;;;;;;;21.10;16.73;;;6.00;99.30;;;;;;5175505;27;20222;-51
2022/03/21 01:03:46;;;;;;;23.63;17.70;;;6.00;99.30;;;;;;5173642;27;20372;-50
2022/03/21 01:06:14;;;;;;;22.67;16.77;;;5.90;99.50;;;;;;5155479;27;20233;-51
2022/03/21 01:08:44;;;;;;;22.10;16.20;;;5.90;99.50;;;;;;5164317;27;20223;-51
2022/03/21 01:11:12;;;;;;;23.07;16.57;;;5.80;99.50;;;;;;5175714;27;20252;-51
2022/03/21 01:13:42;;;;;;;22.37;17.47;;;5.80;99.60;;;;;;5176913;27;20197;-51
2022/03/21 01:16:10;;;;;;;23.80;16.80;;;5.70;99.80;;;;;;5174367;27;20242;-51
2022/03/21 01:18:38;;;;;;;24.30;16.83;;;5.60;99.80;;;;;;5174811;27;20199;-51
2022/03/21 01:21:07;;;;;;;24.83;17.43;;;5.60;99.90;;;;;;5175035;27;20198;-49
2022/03/21 01:23:35;;;;;;;22.07;16.93;;;5.50;99.90;;;;;;5166588;27;20732;-50
2022/03/21 01:26:04;;;;;;;22.67;18.27;;;5.50;99.90;;;;;;5174326;27;20591;-52
2022/03/21 01:28:32;;;;;;;21.80;17.37;;;5.50;99.90;;;;;;5134829;27;1124328;-52
2022/03/21 01:31:00;;;;;;;24.60;16.70;;;5.50;99.90;;;;;;5174642;27;20260;-52
2022/03/21 01:33:31;;;;;;;22.83;16.50;;;5.40;99.90;;;;;;5175340;27;20209;-52
2022/03/21 01:35:59;;;;;;;21.77;15.73;;;5.40;99.90;;;;;;5175463;27;20198;-52
2022/03/21 01:38:27;;;;;;;20.67;16.40;;;5.30;99.90;;;;;;5175413;27;20234;-51
2022/03/21 01:40:55;;;;;;;22.37;16.87;;;5.30;99.90;;;;;;5175279;27;20269;-52
2022/03/21 01:43:25;;;;;;;19.87;15.53;;;5.20;99.90;;;;;;5174331;27;20681;-52
2022/03/21 01:45:53;;;;;;;22.17;16.77;;;5.10;99.90;;;;;;5174814;27;20223;-53
2022/03/21 01:48:21;;;;;;;22.87;16.90;;;5.10;99.90;;;;;;5153689;27;20257;-52
2022/03/21 01:50:49;;;;;;;25.17;15.97;;;5.00;99.90;;;;;;5154040;27;20261;-51
2022/03/21 01:56:03;;;;;;;18.77;14.83;;;5.00;99.90;;;;;;5153785;27;20589;-51
2022/03/21 01:58:34;;;;;;;21.93;15.00;;;5.00;99.90;;;;;;5152890;27;20663;-51
2022/03/21 02:01:02;;;;;;;20.37;15.67;;;5.00;99.90;;;;;;5174279;27;20203;-51
2022/03/21 02:03:30;;;;;;;20.77;14.97;;;5.00;99.90;;;;;;5174530;27;20209;-52
2022/03/21 02:05:58;;;;;;;20.90;15.40;;;4.90;99.90;;;;;;5174981;27;20232;-52
2022/03/21 02:08:27;;;;;;;19.70;14.50;;;4.90;99.90;;;;;;5174764;27;20213;-52
2022/03/21 02:10:56;;;;;;;21.37;15.20;;;4.90;99.90;;;;;;5174976;27;20273;-52
2022/03/21 02:13:24;;;;;;;21.97;14.73;;;4.90;99.90;;;;;;5173458;27;20200;-51
2022/03/21 02:15:54;;;;;;;23.20;15.73;;;4.90;99.90;;;;;;5174621;27;20201;-51
2022/03/21 02:18:25;;;;;;;22.43;15.80;;;4.90;99.90;;;;;;5174333;27;20257;-51
2022/03/21 02:20:55;;;;;;;20.50;15.60;;;4.80;99.90;;;;;;5174574;27;20204;-51
2022/03/21 02:23:31;;;;;;;20.73;15.30;;;4.80;99.90;;;;;;5174137;27;20750;-51
2022/03/21 02:26:02;;;;;;;18.77;14.50;;;4.70;99.90;;;;;;5174448;27;20629;-51
2022/03/21 02:28:32;;;;;;;20.30;14.33;;;4.70;99.90;;;;;;5174071;27;20273;-52
2022/03/21 02:31:00;;;;;;;20.80;15.50;;;4.60;99.90;;;;;;5174661;27;20254;-51
2022/03/21 02:33:29;;;;;;;24.27;16.67;;;4.60;99.90;;;;;;5173809;27;20202;-51
2022/03/21 02:36:00;;;;;;;19.83;15.33;;;4.50;99.90;;;;;;5173585;27;20220;-51
2022/03/21 02:38:29;;;;;;;20.73;15.23;;;4.50;99.90;;;;;;5173890;27;20754;-51
2022/03/21 02:40:57;;;;;;;20.77;14.77;;;4.40;99.90;;;;;;5174364;27;20647;-51
2022/03/21 02:43:27;;;;;;;20.00;15.23;;;4.50;99.90;;;;;;5172877;27;20797;-51
2022/03/21 02:46:04;;;;;;;18.50;14.43;;;4.40;99.90;;;;;;5173579;27;20255;-51
2022/03/21 02:48:32;;;;;;;24.60;15.27;;;4.40;99.90;;;;;;5173371;27;20662;-51
2022/03/21 02:51:02;;;;;;;20.00;14.03;;;4.40;99.90;;;;;;5173743;27;20249;-51
2022/03/21 02:53:32;;;;;;;21.70;15.80;;;4.40;99.90;;;;;;5172707;27;20200;-51
2022/03/21 02:56:00;;;;;;;21.70;15.43;;;4.40;99.90;;;;;;5173772;27;20206;-51
2022/03/21 02:58:30;;;;;;;20.33;15.40;;;4.30;99.90;;;;;;5174040;27;20225;-51
2022/03/21 03:01:07;;;;;;;19.40;14.27;;;4.30;99.90;;;;;;5173805;27;20201;-51
2022/03/21 03:03:35;;;;;;;21.43;16.00;;;4.20;99.90;;;;;;5173676;27;20556;-51
2022/03/21 03:06:03;;;;;;;23.93;15.20;;;4.10;99.90;;;;;;5173182;27;20228;-51
2022/03/21 03:08:32;;;;;;;21.37;16.00;;;4.10;99.90;;;;;;5173733;27;20798;-52
2022/03/21 03:11:01;;;;;;;21.00;14.87;;;4.00;99.90;;;;;;5173682;27;20252;-51
2022/03/21 03:13:30;;;;;;;21.80;14.47;;;4.00;99.90;;;;;;5172674;27;20665;-51
2022/03/21 03:15:59;;;;;;;22.00;15.67;;;4.00;99.90;;;;;;5173890;27;20622;-51
2022/03/21 03:18:27;;;;;;;18.43;15.17;;;4.00;99.90;;;;;;5173477;27;20252;-51
2022/03/21 03:20:57;;;;;;;20.80;15.60;;;4.00;99.90;;;;;;5173209;27;20205;-51
2022/03/21 03:23:27;;;;;;;20.00;15.43;;;3.90;99.90;;;;;;5173289;27;20612;-51
2022/03/21 03:25:58;;;;;;;19.00;14.37;;;3.90;99.90;;;;;;5173695;27;20287;-51
2022/03/21 03:28:27;;;;;;;20.53;14.53;;;3.90;99.90;;;;;;5164747;27;20234;-51
2022/03/21 03:31:17;;;;;;;19.20;15.13;;;3.90;99.90;;;;;;5151905;27;20188;-51
2022/03/21 03:33:46;;;;;;;22.80;15.70;;;3.80;99.90;;;;;;5152234;27;20187;-52
2022/03/21 03:36:15;;;;;;;21.57;15.27;;;3.80;99.90;;;;;;5152278;27;20229;-51
2022/03/21 03:38:43;;;;;;;20.63;15.13;;;3.70;99.90;;;;;;5152855;27;20204;-51
2022/03/21 03:41:12;;;;;;;21.10;15.13;;;3.70;99.90;;;;;;5152145;27;20202;-51
2022/03/21 03:43:40;;;;;;;20.57;15.17;;;3.70;99.90;;;;;;5151837;27;20251;-51
2022/03/21 03:46:08;;;;;;;20.13;15.10;;;3.70;99.90;;;;;;5152499;27;20225;-51
2022/03/21 03:48:38;;;;;;;21.57;15.57;;;3.60;99.90;;;;;;5152245;27;20208;-51
2022/03/21 03:51:06;;;;;;;22.53;14.87;;;3.60;99.90;;;;;;5165445;27;20206;-51
2022/03/21 03:53:35;;;;;;;21.37;15.30;;;3.60;99.90;;;;;;5172673;27;20202;-50
2022/03/21 03:56:03;;;;;;;21.40;15.47;;;3.60;99.90;;;;;;5173327;27;20249;-51
2022/03/21 03:58:31;;;;;;;19.10;15.20;;;3.60;99.90;;;;;;5172724;27;20247;-51
2022/03/21 04:00:59;;;;;;;21.87;15.00;;;3.60;99.90;;;;;;5173076;27;20199;-52
2022/03/21 04:03:45;;;;;;;20.77;14.97;;;3.60;99.90;;;;;;5172358;27;20217;-51
2022/03/21 04:06:16;;;;;;;20.70;14.63;;;3.60;99.90;;;;;;5172966;27;20258;-51
2022/03/21 04:08:45;;;;;;;18.90;14.17;;;3.50;99.90;;;;;;5173378;27;20187;-51
2022/03/21 04:11:14;;;;;;;21.53;15.63;;;3.50;99.90;;;;;;5172927;27;20615;-51
2022/03/21 04:13:43;;;;;;;18.60;14.23;;;3.50;99.90;;;;;;5172641;27;20262;-50
2022/03/21 04:16:11;;;;;;;19.40;14.57;;;3.50;99.90;;;;;;5172977;27;20244;-51
2022/03/21 04:18:39;;;;;;;20.50;14.77;;;3.50;99.90;;;;;;5172726;27;20285;-51
2022/03/21 04:21:29;;;;;;;24.67;15.03;;;3.40;99.90;;;;;;5174117;27;20296;-51
2022/03/21 04:23:58;;;;;;;20.17;14.80;;;3.40;99.90;;;;;;5176689;27;20201;-51
2022/03/21 04:26:26;;;;;;;20.33;14.67;;;3.40;99.90;;;;;;5176531;27;20231;-51
2022/03/21 04:28:55;;;;;;;21.00;15.03;;;3.40;99.90;;;;;;5176279;27;20219;-51
2022/03/21 04:31:24;;;;;;;18.27;14.47;;;3.40;99.90;;;;;;5175315;27;20676;-51
2022/03/21 04:33:52;;;;;;;21.37;14.73;;;3.30;99.90;;;;;;5176091;27;20331;-51
2022/03/21 04:36:20;;;;;;;21.20;15.33;;;3.30;99.90;;;;;;5176691;27;20204;-51
2022/03/21 04:38:50;;;;;;;19.37;14.30;;;3.30;99.90;;;;;;5176026;27;20661;-51
2022/03/21 04:41:18;;;;;;;20.97;14.47;;;3.30;99.90;;;;;;5176689;27;20254;-51
2022/03/21 04:43:46;;;;;;;20.50;15.00;;;3.30;99.90;;;;;;5176147;27;20188;-51
2022/03/21 04:46:14;;;;;;;20.10;14.40;;;3.30;99.90;;;;;;5176145;27;20209;-51
2022/03/21 04:48:43;;;;;;;21.70;14.70;;;3.20;99.90;;;;;;5166195;27;20223;-51
2022/03/21 04:51:11;;;;;;;21.33;15.77;;;3.20;99.90;;;;;;5167925;27;20619;-51
2022/03/21 04:53:39;;;;;;;19.40;14.57;;;3.10;99.90;;;;;;5175203;27;20209;-51
2022/03/21 04:56:08;;;;;;;20.77;14.37;;;3.10;99.90;;;;;;5173361;27;20618;-51
2022/03/21 04:58:36;;;;;;;22.97;15.43;;;3.10;99.90;;;;;;5154568;27;20228;-51
2022/03/21 05:01:04;;;;;;;20.83;15.20;;;3.10;99.90;;;;;;5175429;27;20197;-51
2022/03/21 05:03:33;;;;;;;19.73;15.13;;;3.10;99.90;;;;;;5169308;27;20279;-51
2022/03/21 05:06:02;;;;;;;20.57;14.83;;;3.10;99.90;;;;;;5163434;27;20204;-51
2022/03/21 05:08:30;;;;;;;22.63;15.73;;;3.10;99.90;;;;;;5161012;27;20203;-51
2022/03/21 05:10:58;;;;;;;21.90;15.00;;;3.10;99.90;;;;;;5175020;27;20958;-51
2022/03/21 05:13:28;;;;;;;20.37;14.70;;;3.10;99.90;;;;;;5174738;27;20231;-51
2022/03/21 05:15:57;;;;;;;20.23;15.23;;;3.00;99.90;;;;;;5167090;27;20244;-51
2022/03/21 05:18:27;;;;;;;21.77;15.37;;;3.00;99.90;;;;;;5154848;27;20224;-51
2022/03/21 05:20:55;;;;;;;22.67;15.77;;;3.00;99.90;;;;;;5154591;27;20580;-51
2022/03/21 05:31:37;;;;;;;19.70;14.17;;;3.00;99.90;;;;;;5160481;27;20200;-51
2022/03/21 05:36:53;;;;;;;19.73;14.07;;;3.10;99.90;;;;;;5154521;27;20266;-51
2022/03/21 05:39:22;;;;;;;19.73;13.77;;;3.10;99.90;;;;;;5154706;27;20240;-51
2022/03/21 05:41:51;;;;;;;19.93;14.30;;;3.20;99.90;;;;;;5154174;27;20203;-51
2022/03/21 05:44:20;;;;;;;17.90;14.17;;;3.20;99.90;;;;;;5154170;27;20205;-51
2022/03/21 05:46:48;;;;;;;19.03;14.60;;;3.20;99.90;;;;;;5155058;27;20233;-51
2022/03/21 05:49:16;;;;;;;21.83;14.30;;;3.20;99.90;;;;;;5158096;27;20255;-51
2022/03/21 05:51:44;;;;;;;21.33;14.73;;;3.20;99.90;;;;;;5191588;27;20231;-51
2022/03/21 05:54:14;;;;;;;21.03;14.77;;;3.20;99.90;;;;;;5191411;27;20264;-51
2022/03/21 05:56:43;;;;;;;22.20;15.17;;;3.20;99.90;;;;;;5167720;27;20223;-51
2022/03/21 06:01:59;;;;;;;21.87;17.30;;;3.30;99.90;;;;;;5190346;27;20792;-50
2022/03/21 06:04:27;;;;;;;20.23;14.77;;;3.30;99.90;;;;;;5195388;27;20206;-51
2022/03/21 06:06:55;;;;;;;20.17;15.53;;;3.30;99.90;;;;;;5163355;27;20228;-53
2022/03/21 06:09:23;;;;;;;19.03;14.50;;;3.40;99.90;;;;;;5171741;27;20251;-53
2022/03/21 06:11:51;;;;;;;21.10;14.93;;;3.50;99.90;;;;;;5173060;27;20209;-53
2022/03/21 06:14:20;;;;;;;19.03;14.30;;;3.50;99.90;;;;;;5172451;27;20262;-53
2022/03/21 06:16:49;;;;;;;21.63;14.63;;;3.60;99.90;;;;;;5163637;27;20246;-53
2022/03/21 06:19:19;;;;;;;21.97;13.97;;;3.70;99.90;;;;;;5163580;27;20300;-54
2022/03/21 06:21:47;;;;;;;21.70;14.93;;;3.70;99.90;;;;;;5171413;27;20201;-53
2022/03/21 06:24:15;;;;;;;22.03;15.03;;;3.80;99.90;;;;;;5172106;27;20243;-54
2022/03/21 06:26:44;;;;;;;19.10;14.80;;;3.80;99.90;;;;;;5172668;27;20228;-53
2022/03/21 06:29:12;;;;;;;20.57;14.77;;;3.90;99.90;;;;;;5173944;27;20221;-53
2022/03/21 06:31:41;;;;;;;20.63;16.17;;;4.00;99.90;;;;;;5172404;27;20231;-53
2022/03/21 06:34:09;;;;;;;25.73;17.73;;;4.00;99.90;;;;;;5169707;27;20199;-53
2022/03/21 06:36:38;;;;;;;22.90;17.47;;;4.10;99.90;;;;;;5165895;27;20221;-53
2022/03/21 06:39:06;;;;;;;19.33;14.43;;;4.20;99.90;;;;;;5163926;27;20200;-53
2022/03/21 06:41:35;;;;;;;17.37;14.30;;;4.30;99.90;;;;;;5173642;27;20606;-53
2022/03/21 06:44:03;;;;;;;19.50;14.13;;;4.40;99.90;;;;;;5172873;27;20201;-53
2022/03/21 06:46:31;;;;;;;18.90;14.53;;;4.60;99.90;;;;;;5173383;27;20320;-53
2022/03/21 06:48:59;;;;;;;18.27;13.90;;;4.70;99.90;;;;;;5173391;27;20221;-53
2022/03/21 06:51:27;;;;;;;18.47;14.07;;;4.90;99.90;;;;;;5172117;27;20213;-53
2022/03/21 06:53:57;;;;;;;18.30;13.57;;;5.10;99.90;;;;;;5171207;27;20205;-53
2022/03/21 06:56:25;;;;;;;17.17;13.83;;;5.40;99.90;;;;;;5172446;27;20233;-53
2022/03/21 06:58:53;;;;;;;17.93;14.10;;;5.80;99.90;;;;;;5170729;27;20198;-54
2022/03/21 07:01:21;;;;;;;17.57;14.10;;;6.10;99.90;;;;;;5151861;27;20206;-53
2022/03/21 07:03:49;;;;;;;18.60;13.60;;;6.30;99.90;;;;;;5151782;27;20210;-53
2022/03/21 07:06:19;;;;;;;17.00;13.07;;;6.40;99.90;;;;;;5152502;27;20265;-54
2022/03/21 07:08:51;;;;;;;20.87;14.00;;;6.60;99.90;;;;;;5161561;27;20228;-53
2022/03/21 07:11:21;;;;;;;17.17;12.73;;;6.80;99.90;;;;;;5173037;27;20209;-53
2022/03/21 07:13:50;;;;;;;16.40;13.77;;;7.00;99.90;;;;;;5172648;27;20607;-53
2022/03/21 07:16:18;;;;;;;18.23;14.13;;;7.20;99.90;;;;;;5173043;27;20304;-53
2022/03/21 07:18:47;;;;;;;16.93;13.60;;;7.20;99.80;;;;;;5173905;27;20281;-52
2022/03/21 07:21:16;;;;;;;17.53;13.33;;;7.40;99.90;;;;;;5173908;27;20204;-54
2022/03/21 07:23:45;;;;;;;16.83;13.27;;;7.50;99.90;;;;;;5172580;27;20312;-53
2022/03/21 07:26:13;;;;;;;17.00;13.73;;;7.70;99.90;;;;;;5165825;27;20251;-53
2022/03/21 07:28:42;;;;;;;16.33;13.70;;;7.90;99.90;;;;;;5172296;27;20262;-54
2022/03/21 07:31:31;;;;;;;17.67;14.13;;;8.10;99.90;;;;;;5172424;27;20216;-54
2022/03/21 07:33:59;;;;;;;19.17;14.47;;;8.10;99.90;;;;;;5171751;27;20219;-54
2022/03/21 07:36:29;;;;;;;17.60;13.90;;;8.20;99.90;;;;;;5173025;27;20222;-54
2022/03/21 07:38:58;;;;;;;17.77;14.67;;;8.30;99.90;;;;;;5171389;27;20209;-54
2022/03/21 07:41:27;;;;;;;25.77;14.77;;;8.40;99.90;;;;;;5173170;27;20242;-54
2022/03/21 07:43:58;;;;;;;17.03;14.07;;;8.50;99.90;;;;;;5171988;27;20233;-53
2022/03/21 07:49:13;;;;;;;17.00;14.40;;;8.90;99.90;;;;;;5151978;27;20309;-55
2022/03/21 07:51:43;;;;;;;17.87;14.73;;;8.90;99.90;;;;;;5171673;27;20233;-54
2022/03/21 07:54:12;;;;;;;17.43;14.90;;;8.80;99.90;;;;;;5171840;27;20258;-53
2022/03/21 07:56:41;;;;;;;19.43;15.23;;;8.80;99.90;;;;;;5173841;27;20228;-54
2022/03/21 07:59:11;;;;;;;19.20;14.97;;;9.00;99.90;;;;;;5176390;27;20194;-53
2022/03/21 08:01:45;;;;;;;21.90;15.00;;;9.10;99.50;;;;;;5176345;27;20249;-53
2022/03/21 08:04:13;;;;;;;17.90;14.80;;;9.20;99.40;;;;;;5176595;27;20258;-53
2022/03/21 08:06:41;;;;;;;17.77;14.70;;;9.00;99.10;;;;;;5160647;27;20230;-54
2022/03/21 08:09:10;;;;;;;19.90;14.87;;;8.90;99.00;;;;;;5167385;27;20271;-54
2022/03/21 08:11:38;;;;;;;16.87;14.37;;;8.80;99.30;;;;;;5175881;27;20265;-54
2022/03/21 08:14:06;;;;;;;19.37;14.60;;;8.60;99.20;;;;;;5175707;27;20197;-54
2022/03/21 08:16:35;;;;;;;19.63;15.27;;;8.60;99.90;;;;;;5175180;27;20225;-53
2022/03/21 08:19:04;;;;;;;18.57;15.40;;;8.60;99.90;;;;;;5176229;27;20205;-53
2022/03/21 08:21:32;;;;;;;20.97;14.90;;;8.60;99.90;;;;;;5176360;27;20217;-54
2022/03/21 08:24:00;;;;;;;19.37;14.87;;;8.60;99.90;;;;;;5175848;27;20249;-54
2022/03/21 08:26:31;;;;;;;18.47;14.40;;;8.80;99.90;;;;;;5176429;27;20227;-54
2022/03/21 08:28:59;;;;;;;22.50;14.60;;;8.90;99.90;;;;;;5175123;27;20266;-53
2022/03/21 08:31:28;;;;;;;19.33;15.17;;;9.00;99.90;;;;;;5175936;27;20204;-53
2022/03/21 08:33:58;;;;;;;21.33;14.90;;;9.10;99.70;;;;;;5172884;27;20246;-53
2022/03/21 08:36:27;;;;;;;19.07;14.90;;;9.30;99.40;;;;;;5160127;27;20233;-53
2022/03/21 08:38:55;;;;;;;20.70;15.43;;;9.40;99.00;;;;;;5176194;27;20197;-53
2022/03/21 08:41:24;;;;;;;19.60;14.97;;;9.60;99.20;;;;;;5175455;27;20205;-54
2022/03/21 08:43:52;;;;;;;18.57;15.07;;;9.70;99.30;;;;;;5154014;27;20205;-53
2022/03/21 08:46:21;;;;;;;17.47;14.20;;;9.80;98.60;;;;;;5154423;27;20206;-53
2022/03/21 08:51:57;;;;;;;18.83;14.73;;;9.90;98.40;;;;;;5154499;27;20292;-53
2022/03/21 08:54:25;;;;;;;18.73;14.80;;;9.90;98.00;;;;;;5154620;27;20225;-53
2022/03/21 08:56:53;;;;;;;19.50;15.03;;;10.10;97.40;;;;;;5154424;27;20706;-53
2022/03/21 08:59:22;;;;;;;19.63;15.30;;;10.10;97.00;;;;;;5160685;27;20615;-53
2022/03/21 09:01:50;;;;;;;22.40;15.50;;;10.10;96.90;;;;;;5175208;27;20770;-54
2022/03/21 09:04:18;;;;;;;19.43;14.93;;;10.10;95.30;;;;;;5154311;27;20686;-53
2022/03/21 09:06:47;;;;;;;18.97;14.80;;;10.20;95.30;;;;;;5162222;27;20225;-51
2022/03/21 09:09:18;;;;;;;17.43;14.53;;;10.30;95.60;;;;;;5166677;27;20221;-57
2022/03/21 09:11:46;;;;;;;19.93;15.27;;;10.30;95.60;;;;;;5175443;27;20186;-50
2022/03/21 09:14:14;;;;;;;19.30;14.00;;;10.40;94.00;;;;;;5174552;27;20861;-51
2022/03/21 09:16:43;;;;;;;17.80;14.67;;;10.40;93.90;;;;;;5171669;27;20221;-51
2022/03/21 09:19:11;;;;;;;18.67;15.17;;;10.30;93.20;;;;;;5169465;27;20201;-50
2022/03/21 09:21:40;;;;;;;24.00;14.83;;;10.40;93.80;;;;;;5154307;27;20586;-49
2022/03/21 09:24:10;;;;;;;20.07;14.93;;;10.50;93.70;;;;;;5170292;27;20198;-50
2022/03/21 09:26:39;;;;;;;20.77;15.33;;;10.50;93.60;;;;;;5174806;27;20221;-50
2022/03/21 09:29:11;;;;;;;18.40;14.43;;;10.60;93.90;;;;;;5174666;27;20861;-51
2022/03/21 09:31:40;;;;;;;19.90;13.50;;;10.60;93.80;;;;;;5175008;27;20744;-51
2022/03/21 09:34:08;;;;;;;16.77;14.70;;;10.70;94.00;;;;;;5174010;27;20198;-51
2022/03/21 09:36:37;;;;;;;19.53;15.40;;;10.70;93.70;;;;;;5174866;27;20246;-51
2022/03/21 09:39:08;;;;;;;19.93;14.83;;;10.80;93.50;;;;;;5171162;27;20209;-51
2022/03/21 09:41:36;;;;;;;23.73;17.30;;;10.70;94.00;;;;;;5158644;27;20205;-51
2022/03/21 09:44:09;;;;;;;18.93;14.63;;;10.80;93.60;;;;;;5161826;27;20669;-49
2022/03/21 09:46:40;;;;;;;17.80;14.17;;;10.90;94.30;;;;;;5153908;27;20240;-49
2022/03/21 09:49:10;;;;;;;17.67;14.30;;;11.00;94.80;;;;;;5152698;27;20773;-49
2022/03/21 09:51:40;;;;;;;17.57;14.30;;;11.10;93.60;;;;;;5153809;27;20737;-48
2022/03/21 09:54:09;;;;;;;17.53;14.50;;;11.20;94.60;;;;;;5153519;27;20681;-49
2022/03/21 09:56:38;;;;;;;19.93;14.53;;;11.30;94.20;;;;;;5153714;27;20222;-50
2022/03/21 09:59:08;;;;;;;23.30;17.00;;;11.30;92.90;;;;;;5157127;27;20715;-50
2022/03/21 10:01:37;;;;;;;25.13;17.50;;;11.30;92.90;;;;;;5174098;27;20197;-49
2022/03/21 10:04:06;;;;;;;19.23;16.10;;;11.40;92.60;;;;;;5173807;27;20197;-48
2022/03/21 10:06:37;;;;;;;20.53;15.93;;;11.40;93.00;;;;;;5173567;27;20221;-51
2022/03/21 10:09:11;;;;;;;22.13;17.20;;;11.40;92.20;;;;;;5168846;27;20539;-51
2022/03/21 10:11:40;;;;;;;20.97;16.37;;;11.50;92.80;;;;;;5165573;27;20198;-51
2022/03/21 10:14:24;;;;;;;20.97;16.47;;;11.40;92.00;;;;;;5173687;27;20721;-51
2022/03/21 10:16:56;;;;;;;22.57;17.93;;;11.50;92.50;;;;;;5158859;27;20701;-50
2022/03/21 10:19:25;;;;;;;20.90;16.63;;;11.60;93.30;;;;;;5172830;27;20208;-51
2022/03/21 10:22:05;;;;;;;25.37;18.60;;;11.70;92.90;;;;;;5173307;27;20205;-51
2022/03/21 10:24:38;;;;;;;20.30;16.97;;;11.60;91.50;;;;;;5174172;27;20216;-51
2022/03/21 10:27:07;;;;;;;24.73;19.03;;;11.60;92.60;;;;;;5174029;27;20229;-51
2022/03/21 10:32:34;;;;;;;23.93;18.07;;;11.70;93.70;;;;;;5067466;27;20582;-50
2022/03/21 10:35:05;;;;;;;21.97;17.73;;;12.00;93.80;;;;;;5073615;28;20200;-51
2022/03/21 10:37:48;;;;;;;24.07;17.77;;;12.00;93.00;;;;;;5086117;28;20220;-50
2022/03/21 10:40:28;;;;;;;22.70;17.30;;;12.00;92.40;;;;;;5088439;28;20192;-51
2022/03/21 10:42:59;;;;;;;23.17;17.00;;;12.00;92.10;;;;;;5065683;28;20213;-51
2022/03/21 10:45:45;;;;;;;21.03;16.43;;;12.00;93.30;;;;;;5068217;28;20201;-50
2022/03/21 10:48:16;;;;;;;23.10;17.00;;;12.10;93.20;;;;;;5067749;28;20225;-51
2022/03/21 10:50:46;;;;;;;22.93;17.57;;;12.20;93.70;;;;;;5067749;28;20213;-51
2022/03/21 10:53:16;;;;;;;20.77;16.73;;;12.20;93.40;;;;;;5067487;28;20197;-51
2022/03/21 10:55:46;;;;;;;21.73;16.67;;;12.30;94.20;;;;;;5067043;28;20197;-51
2022/03/21 10:58:16;;;;;;;26.20;17.67;;;12.30;92.70;;;;;;5067911;28;20229;-51
2022/03/21 11:00:44;;;;;;;20.07;16.30;;;12.30;92.90;;;;;;5063946;28;20208;-51
2022/03/21 11:03:16;;;;;;;21.47;16.63;;;12.40;93.50;;;;;;5065876;28;20224;-51
2022/03/21 11:05:46;;;;;;;21.17;16.87;;;12.40;93.00;;;;;;5064177;28;20710;-51
2022/03/21 11:08:17;;;;;;;20.80;16.93;;;12.50;94.10;;;;;;5064806;28;20836;-51
2022/03/21 11:10:45;;;;;;;23.67;16.73;;;12.60;94.00;;;;;;5058568;28;20231;-51
2022/03/21 11:13:14;;;;;;;22.17;17.27;;;12.70;94.50;;;;;;5058424;28;20205;-51
2022/03/21 11:15:43;;;;;;;21.57;17.47;;;12.60;93.00;;;;;;5050875;28;20252;-51
2022/03/21 11:18:11;;;;;;;23.60;17.90;;;12.70;94.10;;;;;;5065162;28;20287;-51
2022/03/21 11:20:42;;;;;;;21.67;17.30;;;12.70;92.90;;;;;;5050056;28;20213;-51
2022/03/21 11:23:10;;;;;;;22.27;17.70;;;12.70;92.60;;;;;;5066968;28;20213;-50
2022/03/21 11:25:41;;;;;;;24.57;17.33;;;12.70;91.80;;;;;;5050815;28;20236;-50
2022/03/21 11:28:52;;;;;;;24.00;18.43;;;12.70;93.70;;;;;;5066059;28;20229;-51
2022/03/21 11:31:47;;;;;;;22.23;17.70;;;12.80;92.60;;;;;;5066941;28;20294;-51
2022/03/21 11:34:27;;;;;;;21.90;17.70;;;12.80;92.10;;;;;;5064595;28;20332;-50
2022/03/21 11:36:58;;;;;;;24.97;18.43;;;12.90;92.40;;;;;;5066659;28;20775;-51
2022/03/21 11:39:28;;;;;;;24.57;18.93;;;12.80;92.00;;;;;;5066625;28;20209;-50
2022/03/21 11:42:01;;;;;;;24.97;17.50;;;12.90;92.40;;;;;;5063552;28;20198;-51
2022/03/21 11:44:30;;;;;;;25.03;18.47;;;12.90;92.00;;;;;;5053323;28;20240;-50
2022/03/21 11:47:24;;;;;;;24.23;18.30;;;13.00;93.60;;;;;;5053254;28;20225;-50
2022/03/21 11:49:53;;;;;;;21.90;18.13;;;13.00;91.80;;;;;;5053013;28;20209;-51
2022/03/21 11:52:23;;;;;;;21.10;17.70;;;13.10;92.90;;;;;;5052434;28;20279;-51
2022/03/21 11:54:53;;;;;;;23.30;18.10;;;13.10;92.50;;;;;;5052721;28;20343;-51
2022/03/21 11:57:28;;;;;;;24.93;18.90;;;13.20;91.80;;;;;;5052268;28;20236;-51
2022/03/21 12:00:01;;;;;;;24.17;18.70;;;13.20;92.60;;;;;;5052321;28;20256;-51
2022/03/21 12:02:57;;;;;;;26.23;18.90;;;13.20;92.50;;;;;;5051592;28;20232;-51
2022/03/21 12:05:52;;;;;;;24.07;18.87;;;13.20;92.40;;;;;;5045620;28;20206;-51
2022/03/21 12:08:55;;;;;;;23.80;18.80;;;13.30;92.30;;;;;;5045736;28;20287;-51
2022/03/21 12:12:03;;;;;;;26.37;18.40;;;13.30;92.30;;;;;;5050556;28;20217;-51
2022/03/21 12:14:44;;;;;;;24.40;18.60;;;13.40;93.20;;;;;;5051249;28;20205;-52
2022/03/21 12:17:36;;;;;;;28.33;18.93;;;13.40;92.60;;;;;;5048125;28;20248;-51
2022/03/21 12:20:12;;;;;;;24.27;18.77;;;13.50;93.20;;;;;;5050224;28;20201;-51
2022/03/21 12:23:17;;;;;;;25.40;19.40;;;13.50;94.00;;;;;;5046439;28;20223;-50
2022/03/21 12:25:52;;;;;;;28.20;18.87;;;13.60;93.20;;;;;;5050322;28;20197;-51
2022/03/21 12:29:31;;;;;;;25.73;20.07;;;13.60;92.90;;;;;;5051331;28;20229;-51
2022/03/21 12:31:24;;;;;;;27.00;19.63;;;13.70;93.80;;;;;;5041506;28;20209;-51
2022/03/21 12:33:53;;;;;;;26.43;19.60;;;13.70;93.40;;;;;;5042295;28;20200;-51
2022/03/21 12:36:34;;;;;;;24.43;18.63;;;13.70;93.30;;;;;;5048574;28;20213;-51
2022/03/21 12:39:02;;;;;;;26.77;19.77;;;13.70;92.10;;;;;;5050786;28;20670;-51
2022/03/21 12:41:35;;;;;;;26.47;20.70;;;13.70;93.50;;;;;;5050338;28;20690;-52
2022/03/21 12:44:03;;;;;;;26.40;19.40;;;13.80;93.60;;;;;;5049716;28;20263;-52
2022/03/21 12:46:32;;;;;;;25.53;18.70;;;13.80;93.70;;;;;;5050208;28;20225;-50
2022/03/21 12:49:03;;;;;;;26.83;19.10;;;13.80;93.20;;;;;;5050238;28;20483;-51
2022/03/21 12:51:34;;;;;;;27.07;20.07;;;13.90;93.80;;;;;;5050395;28;20259;-51
2022/03/21 12:54:19;;;;;;;28.77;19.13;;;13.90;93.30;;;;;;5050257;28;20260;-51
2022/03/21 12:56:50;;;;;;;27.73;19.70;;;13.90;93.10;;;;;;5048093;28;20229;-51
2022/03/21 12:59:21;;;;;;;24.33;19.37;;;13.90;93.60;;;;;;5051290;28;20224;-51
2022/03/21 13:01:50;;;;;;;28.73;20.13;;;13.90;93.60;;;;;;5051462;28;20253;-51
2022/03/21 13:12:41;;;;;;;26.67;19.93;;;14.10;93.10;;;;;;5049778;28;20237;-51
2022/03/21 13:15:11;;;;;;;26.93;19.93;;;14.00;93.10;;;;;;5044181;28;20666;-51
2022/03/21 13:17:50;;;;;;;25.70;20.10;;;14.00;93.10;;;;;;5049314;28;20248;-51
2022/03/21 13:20:25;;;;;;;27.27;20.73;;;14.10;93.10;;;;;;5049339;28;20237;-51
2022/03/21 13:22:55;;;;;;;26.33;19.70;;;14.10;93.80;;;;;;5049611;28;20197;-51
2022/03/21 13:25:25;;;;;;;28.43;20.10;;;14.10;93.20;;;;;;5051052;28;20213;-51